Time,TemperatureF,DewpointF,PressureIn,WindDirection,WindDirectionDegrees,WindSpeedMPH,WindSpeedGustMPH,Humidity,HourlyPrecipIn,Conditions,Clouds,dailyrainin,SoftwareType,DateUTC
2013-01-03 00:03:00,22.7,11.9,29.96,NW,315,0.0,0.9,63,0.00, +FZSN FG BLRA SQ BLRA,OVC100 VV000 5SM,0.00,WUHU216HW,2013-01-03 07:03:00,
2013-01-03 00:08:00,22.3,11.3,29.96,SSE,158,1.4,2.5,62,0.00, +FZSN FG BLRA SQ BLRA,OVC100 VV000 5SM,0.00,WUHU216HW,2013-01-03 07:08:00,
2013-01-03 00:13:00,21.8,11.1,29.97,SSE,158,0.0,2.5,63,0.00, +FZSN FG BLRA SQ BLRA,OVC100 VV000 5SM,0.00,WUHU216HW,2013-01-03 07:13:00,
2013-01-03 00:18:00,21.8,11.4,29.97,North,0,0.0,0.9,64,0.00, +FZSN FG BLRA SQ BLRA,OVC100 VV000 5SM,0.00,WUHU216HW,2013-01-03 07:18:00,
2013-01-03 00:23:00,21.8,11.8,29.97,NW,315,0.1,0.4,65,0.00, +FZSN FG BLRA SQ BLRA,OVC100 VV000 5SM,0.00,WUHU216HW,2013-01-03 07:23:00,
2013-01-03 00:28:00,21.6,11.6,29.97,NW,315,0.0,0.4,65,0.00, +FZSN FG BLRA SQ BLRA,OVC100 VV000 5SM,0.00,WUHU216HW,2013-01-03 07:28:00,
2013-01-03 00:33:00,21.6,12.0,29.97,SW,225,1.8,1.8,66,0.00, +FZSN FG BLRA SQ BLRA,OVC100 VV000 5SM,0.00,WUHU216HW,2013-01-03 07:33:00,
2013-01-03 00:38:00,21.4,11.4,29.97,SW,221,1.0,2.2,65,0.00, +FZSN FG BLRA SQ BLRA,OVC100 VV000 5SM,0.00,WUHU216HW,2013-01-03 07:38:00,
2013-01-03 00:43:00,21.2,10.9,29.97,SW,225,0.9,2.2,64,0.00, +FZSN FG BLRA SQ BLRA,OVC100 VV000 5SM,0.00,WUHU216HW,2013-01-03 07:43:00,
2013-01-03 00:48:00,21.1,11.1,29.97,SW,225,1.6,1.6,65,0.00, +FZSN FG BLRA SQ BLRA,OVC100 VV000 5SM,0.00,WUHU216HW,2013-01-03 07:48:00,
2013-01-03 00:53:00,21.2,11.3,29.97,SSW,203,1.8,2.2,65,0.00, +FZSN FG BLRA SQ BLRA,OVC100 VV000 5SM,0.00,WUHU216HW,2013-01-03 07:53:00,
2013-01-03 00:58:00,21.4,11.8,29.97,SSW,203,2.2,2.5,66,0.00, +FZSN FG BLRA SQ BLRA,OVC100 VV000 5SM,0.00,WUHU216HW,2013-01-03 07:58:00,
2013-01-03 01:03:00,21.2,11.6,29.97,SW,225,2.7,3.6,66,0.00, +FZSN FG BLRA SQ BLRA,OVC100 VV000 5SM,0.00,WUHU216HW,2013-01-03 08:03:00,
2013-01-03 01:08:00,21.6,11.6,29.97,SW,225,1.8,3.6,65,0.00, +FZSN FG BLRA SQ BLRA,OVC100 VV000 5SM,0.00,WUHU216HW,2013-01-03 08:08:00,
2013-01-03 01:13:00,21.8,11.8,29.97,SSW,203,1.8,2.9,65,0.00, +FZSN FG BLRA SQ BLRA,OVC100 VV000 5SM,0.00,WUHU216HW,2013-01-03 08:13:00,
2013-01-03 01:18:00,22.0,12.2,29.97,SW,225,1.8,2.9,66,0.00, +FZSN FG BLRA SQ BLRA,OVC100 VV000 5SM,0.00,WUHU216HW,2013-01-03 08:18:00,
2013-01-03 01:23:00,22.3,12.2,29.97,WSW,248,0.0,2.9,65,0.00, +FZSN FG BLRA SQ BLRA,OVC100 VV000 5SM,0.00,WUHU216HW,2013-01-03 08:23:00,
2013-01-03 01:28:00,22.1,12.1,29.97,WSW,245,0.9,2.0,65,0.00, +FZSN FG BLRA SQ BLRA,OVC100 VV000 5SM,0.00,WUHU216HW,2013-01-03 08:28:00,
2013-01-03 01:33:00,22.1,11.8,29.97,SW,225,0.0,1.6,64,0.00, +FZSN FG BLRA SQ BLRA,OVC100 VV000 5SM,0.00,WUHU216HW,2013-01-03 08:33:00,
2013-01-03 01:38:00,22.3,11.9,29.98,WSW,248,0.7,0.7,64,0.00, +FZSN FG BLRA SQ BLRA,OVC100 VV000 5SM,0.00,WUHU216HW,2013-01-03 08:38:00,
2013-01-03 01:43:00,22.7,11.9,29.98,West,270,0.0,1.8,63,0.00, +FZSN FG BLRA SQ BLRA,OVC100 VV000 5SM,0.00,WUHU216HW,2013-01-03 08:43:00,
2013-01-03 01:48:00,22.7,11.5,29.98,NW,315,0.4,1.8,62,0.00, +FZSN FG BLRA SQ BLRA,OVC100 VV000 5SM,0.00,WUHU216HW,2013-01-03 08:48:00,
2013-01-03 01:53:00,22.5,11.3,29.98,NW,315,2.0,2.0,62,0.00, +FZSN FG BLRA SQ BLRA,OVC100 VV000 5SM,0.00,WUHU216HW,2013-01-03 08:53:00,
2013-01-03 01:58:00,22.3,10.9,29.98,NNW,338,1.1,2.0,61,0.00, +FZSN FG BLRA SQ BLRA,OVC100 VV000 5SM,0.00,WUHU216HW,2013-01-03 08:58:00,
2013-01-03 02:03:00,22.3,11.3,29.98,NNW,338,1.1,1.8,62,0.00, +FZSN FG BLRA SQ BLRA,OVC100 VV000 5SM,0.00,WUHU216HW,2013-01-03 09:03:00,
2013-01-03 02:08:00,22.5,11.1,29.98,NNW,338,0.9,1.6,61,0.00, +FZSN FG BLRA SQ BLRA,OVC100 VV000 5SM,0.00,WUHU216HW,2013-01-03 09:08:00,
2013-01-03 02:13:00,22.7,11.2,29.98,North,350,0.3,1.6,61,0.00, +FZSN FG BLRA SQ BLRA,OVC100 VV000 5SM,0.00,WUHU216HW,2013-01-03 09:13:00,
2013-01-03 02:18:00,22.7,11.2,29.98,NNW,333,0.5,1.6,61,0.00, +FZSN FG BLRA SQ BLRA,OVC100 VV000 5SM,0.00,WUHU216HW,2013-01-03 09:18:00,
2013-01-03 02:23:00,22.5,11.1,29.98,NW,315,0.0,0.7,61,0.00, +FZSN FG BLRA SQ BLRA,OVC100 VV000 5SM,0.00,WUHU216HW,2013-01-03 09:23:00,
2013-01-03 02:28:00,22.3,10.5,29.98,NW,315,0.0,0.0,60,0.00, +FZSN FG BLRA SQ BLRA,OVC100 VV000 5SM,0.00,WUHU216HW,2013-01-03 09:28:00,
2013-01-03 02:33:00,22.1,10.7,29.98,NW,315,0.0,0.0,61,0.00, +FZSN FG BLRA SQ BLRA,OVC100 VV000 5SM,0.00,WUHU216HW,2013-01-03 09:33:00,
2013-01-03 02:38:00,22.0,10.5,29.98,NW,315,0.0,0.0,61,0.00, +FZSN FG BLRA SQ BLRA,OVC100 VV000 5SM,0.00,WUHU216HW,2013-01-03 09:38:00,
2013-01-03 02:43:00,21.8,10.4,29.98,WNW,293,0.1,0.4,61,0.00, +FZSN FG BLRA SQ BLRA,OVC100 VV000 5SM,0.00,WUHU216HW,2013-01-03 09:43:00,
2013-01-03 02:48:00,21.6,10.2,29.98,West,270,0.0,0.4,61,0.00, +FZSN FG BLRA SQ BLRA,OVC100 VV000 5SM,0.00,WUHU216HW,2013-01-03 09:48:00,
2013-01-03 02:53:00,21.4,10.1,29.97,West,270,1.1,1.1,61,0.00, +FZSN FG BLRA SQ BLRA,OVC100 VV000 5SM,0.00,WUHU216HW,2013-01-03 09:53:00,
2013-01-03 02:58:00,21.4,10.1,29.97,WNW,293,1.8,1.8,61,0.00, +FZSN FG BLRA SQ BLRA,OVC100 VV000 5SM,0.00,WUHU216HW,2013-01-03 09:58:00,
2013-01-03 03:03:00,21.4,10.1,29.98,WNW,293,0.9,2.7,61,0.00, +FZSN FG BLRA SQ BLRA,OVC100 VV000 5SM,0.00,WUHU216HW,2013-01-03 10:03:00,
2013-01-03 03:08:00,21.4,10.1,29.97,ENE,68,2.5,2.7,61,0.00, +FZSN FG BLRA SQ BLRA,OVC100 VV000 5SM,0.00,WUHU216HW,2013-01-03 10:08:00,
2013-01-03 03:13:00,21.4,10.1,29.98,NNE,23,1.1,2.5,61,0.00, +FZSN FG BLRA SQ BLRA,OVC100 VV000 5SM,0.00,WUHU216HW,2013-01-03 10:13:00,
2013-01-03 03:18:00,21.2,9.9,29.98,ENE,68,1.3,2.5,61,0.00, +FZSN FG BLRA SQ BLRA,OVC100 VV000 5SM,0.00,WUHU216HW,2013-01-03 10:18:00,
2013-01-03 03:23:00,21.2,9.9,29.97,NE,45,0.9,1.6,61,0.00, +FZSN FG BLRA SQ BLRA,OVC100 VV000 5SM,0.00,WUHU216HW,2013-01-03 10:23:00,
2013-01-03 03:28:00,21.1,9.7,29.98,ENE,68,0.6,1.8,61,0.00, +FZSN FG BLRA SQ BLRA,OVC100 VV000 5SM,0.00,WUHU216HW,2013-01-03 10:28:00,
2013-01-03 03:33:00,20.9,9.6,29.98,NNW,338,0.2,1.8,61,0.00, +FZSN FG BLRA SQ BLRA,OVC100 VV000 5SM,0.00,WUHU216HW,2013-01-03 10:33:00,
2013-01-03 03:38:00,20.7,9.4,29.97,North,0,0.0,0.4,61,0.00, +FZSN FG BLRA SQ BLRA,OVC100 VV000 5SM,0.00,WUHU216HW,2013-01-03 10:38:00,
2013-01-03 03:43:00,20.5,9.2,29.98,NNW,346,0.1,0.4,61,0.00, +FZSN FG BLRA SQ BLRA,OVC100 VV000 5SM,0.00,WUHU216HW,2013-01-03 10:43:00,
2013-01-03 03:48:00,20.3,9.4,29.97,NNW,338,0.4,1.3,62,0.00, +FZSN FG BLRA SQ BLRA,OVC100 VV000 5SM,0.00,WUHU216HW,2013-01-03 10:48:00,
2013-01-03 03:53:00,20.3,9.4,29.97,NW,305,2.0,2.9,62,0.00, +FZSN FG BLRA SQ BLRA,OVC100 VV000 5SM,0.00,WUHU216HW,2013-01-03 10:53:00,
2013-01-03 03:58:00,20.3,9.6,29.98,NW,314,2.2,4.7,63,0.00, +FZSN FG BLRA SQ BLRA,OVC100 VV000 5SM,0.00,WUHU216HW,2013-01-03 10:58:00,
2013-01-03 04:03:00,20.5,9.6,29.98,NNW,334,0.7,4.7,62,0.00, +FZSN FG BLRA SQ BLRA,OVC100 VV000 5SM,0.00,WUHU216HW,2013-01-03 11:03:00,
2013-01-03 04:08:00,20.5,9.6,29.98,NW,315,1.1,4.0,62,0.00, +FZSN FG BLRA SQ BLRA,OVC100 VV000 5SM,0.00,WUHU216HW,2013-01-03 11:08:00,
2013-01-03 04:13:00,20.3,9.4,29.98,NW,315,1.1,2.0,62,0.00, +FZSN FG BLRA SQ BLRA,OVC100 VV000 5SM,0.00,WUHU216HW,2013-01-03 11:13:00,
2013-01-03 04:18:00,20.3,9.4,29.98,WNW,293,2.4,3.1,62,0.00, +FZSN FG BLRA SQ BLRA,OVC100 VV000 5SM,0.00,WUHU216HW,2013-01-03 11:18:00,
2013-01-03 04:23:00,20.5,9.8,29.98,WNW,299,1.2,3.1,63,0.00, +FZSN FG BLRA SQ BLRA,OVC100 VV000 5SM,0.00,WUHU216HW,2013-01-03 11:23:00,
2013-01-03 04:28:00,20.9,10.2,29.98,NNW,338,4.3,4.3,63,0.00, +FZSN FG BLRA SQ BLRA,OVC100 VV000 5SM,0.00,WUHU216HW,2013-01-03 11:28:00,
2013-01-03 04:33:00,21.2,10.3,29.98,NNW,331,2.3,4.7,62,0.00, +FZSN FG BLRA SQ BLRA,OVC100 VV000 5SM,0.00,WUHU216HW,2013-01-03 11:33:00,
2013-01-03 04:38:00,22.0,10.5,29.98,NNW,338,4.7,4.7,61,0.00, +FZSN FG BLRA SQ BLRA,OVC100 VV000 5SM,0.00,WUHU216HW,2013-01-03 11:38:00,
2013-01-03 04:43:00,22.0,10.5,29.98,NNW,338,3.4,4.7,61,0.00, +FZSN FG BLRA SQ BLRA,OVC100 VV000 5SM,0.00,WUHU216HW,2013-01-03 11:43:00,
2013-01-03 04:48:00,22.1,10.4,29.98,NNW,327,3.0,4.7,60,0.00, +FZSN FG BLRA SQ BLRA,OVC100 VV000 5SM,0.00,WUHU216HW,2013-01-03 11:48:00,
2013-01-03 04:53:00,22.3,10.1,29.98,North,351,4.4,5.6,59,0.00, +FZSN FG BLRA SQ BLRA,OVC100 VV000 5SM,0.00,WUHU216HW,2013-01-03 11:53:00,
2013-01-03 04:58:00,22.5,9.5,29.98,NNW,342,3.1,5.6,57,0.00, +FZSN FG BLRA SQ BLRA,OVC100 VV000 5SM,0.00,WUHU216HW,2013-01-03 11:58:00,
2013-01-03 05:03:00,22.7,9.6,29.98,NNW,327,3.5,6.3,57,0.00, +FZSN FG BLRA SQ BLRA,OVC100 VV000 5SM,0.00,WUHU216HW,2013-01-03 12:03:00,
2013-01-03 05:08:00,22.9,9.5,29.98,NNW,333,2.7,6.3,56,0.00, +FZSN FG BLRA SQ BLRA,OVC100 VV000 5SM,0.00,WUHU216HW,2013-01-03 12:08:00,
2013-01-03 05:13:00,22.9,9.5,29.98,NW,315,2.7,4.7,56,0.00, +FZSN FG BLRA SQ BLRA,OVC100 VV000 5SM,0.00,WUHU216HW,2013-01-03 12:13:00,
2013-01-03 05:18:00,22.9,9.0,29.99,NNW,343,2.8,4.7,55,0.00, +FZSN FG BLRA SQ BLRA,OVC100 VV000 5SM,0.00,WUHU216HW,2013-01-03 12:18:00,
2013-01-03 05:23:00,22.9,9.0,29.99,NW,318,1.9,3.4,55,0.00, +FZSN FG BLRA SQ BLRA,OVC100 VV000 5SM,0.00,WUHU216HW,2013-01-03 12:23:00,
2013-01-03 05:28:00,22.7,8.8,29.99,NNW,330,0.8,3.1,55,0.00, +FZSN FG BLRA SQ BLRA,OVC100 VV000 5SM,0.00,WUHU216HW,2013-01-03 12:28:00,
2013-01-03 05:33:00,22.5,8.6,29.99,NNW,338,2.7,2.7,55,0.00, +FZSN FG BLRA SQ BLRA,OVC100 VV000 5SM,0.00,WUHU216HW,2013-01-03 12:33:00,
2013-01-03 05:38:00,22.1,8.4,29.99,NW,315,1.6,2.7,55,0.00, +FZSN FG BLRA SQ BLRA,OVC100 VV000 5SM,0.00,WUHU216HW,2013-01-03 12:38:00,
2013-01-03 05:43:00,22.0,8.2,29.99,NNW,328,2.2,2.7,55,0.00, +FZSN FG BLRA SQ BLRA,OVC100 VV000 5SM,0.00,WUHU216HW,2013-01-03 12:43:00,
2013-01-03 05:48:00,21.6,8.2,29.99,NW,323,0.6,2.7,56,0.00, +FZSN FG BLRA SQ BLRA,OVC100 VV000 5SM,0.00,WUHU216HW,2013-01-03 12:48:00,
2013-01-03 05:53:00,21.2,7.9,30.00,NNW,333,0.7,2.5,56,0.00, +FZSN FG BLRA SQ BLRA,OVC100 VV000 5SM,0.00,WUHU216HW,2013-01-03 12:53:00,
2013-01-03 05:58:00,21.1,7.8,30.00,NNW,338,0.1,1.8,56,0.00, +FZSN FG BLRA SQ BLRA,OVC100 VV000 5SM,0.00,WUHU216HW,2013-01-03 12:58:00,
2013-01-03 06:03:00,20.7,7.4,30.00,NW,312,1.0,1.3,56,0.00, +FZSN FG BLRA SQ BLRA,OVC100 VV000 5SM,0.00,WUHU216HW,2013-01-03 13:03:00,
2013-01-03 06:08:00,20.3,7.4,30.00,NNW,338,0.4,1.8,57,0.00, +FZSN FG BLRA SQ BLRA,OVC100 VV000 5SM,0.00,WUHU216HW,2013-01-03 13:08:00,
2013-01-03 06:13:00,20.0,7.1,30.00,NW,308,0.9,1.8,57,0.00, +FZSN FG BLRA SQ BLRA,OVC100 VV000 5SM,0.00,WUHU216HW,2013-01-03 13:13:00,
2013-01-03 06:18:00,19.6,7.6,30.00,West,270,1.1,1.8,59,0.00, +FZSN FG BLRA SQ BLRA,OVC100 VV000 5SM,0.00,WUHU216HW,2013-01-03 13:18:00,
2013-01-03 06:23:00,19.4,8.1,30.00,West,270,0.4,2.2,61,0.00, +FZSN FG BLRA SQ BLRA,OVC100 VV000 5SM,0.00,WUHU216HW,2013-01-03 13:23:00,
2013-01-03 06:28:00,19.3,7.6,30.00,WNW,293,3.4,3.6,60,0.00, +FZSN FG BLRA SQ BLRA,OVC100 VV000 5SM,0.00,WUHU216HW,2013-01-03 13:28:00,
2013-01-03 06:33:00,19.1,7.4,30.00,NNW,338,0.9,4.0,60,0.00, +FZSN FG BLRA SQ BLRA,OVC100 VV000 5SM,0.00,WUHU216HW,2013-01-03 13:33:00,
2013-01-03 06:38:00,18.9,7.3,30.00,NNW,338,1.6,4.0,60,0.00, +FZSN FG BLRA SQ BLRA,OVC100 VV000 5SM,0.00,WUHU216HW,2013-01-03 13:38:00,
2013-01-03 06:43:00,18.7,7.1,30.00,NNW,334,0.8,2.0,60,0.00, +FZSN FG BLRA SQ BLRA,OVC100 VV000 5SM,0.00,WUHU216HW,2013-01-03 13:43:00,
2013-01-03 06:48:00,18.7,7.1,30.00,NW,315,0.0,1.8,60,0.00, +FZSN FG BLRA SQ BLRA,OVC100 VV000 5SM,0.00,WUHU216HW,2013-01-03 13:48:00,
2013-01-03 06:53:00,18.4,6.8,30.01,NNW,338,0.0,0.7,60,0.00, +FZSN FG BLRA SQ BLRA,OVC100 VV000 5SM,0.00,WUHU216HW,2013-01-03 13:53:00,
2013-01-03 06:58:00,18.4,7.1,30.01,NNW,338,0.6,1.1,61,0.00, +FZSN FG BLRA SQ BLRA,OVC100 VV000 5SM,0.00,WUHU216HW,2013-01-03 13:58:00,
2013-01-03 07:03:00,18.4,7.1,30.01,NNW,338,0.2,1.1,61,0.00, +FZSN FG BLRA SQ BLRA,OVC100 VV000 5SM,0.00,WUHU216HW,2013-01-03 14:03:00,
2013-01-03 07:08:00,18.4,7.1,30.01,NW,315,2.2,2.7,61,0.00, +FZSN FG BLRA SQ BLRA,OVC100 VV000 5SM,0.00,WUHU216HW,2013-01-03 14:08:00,
2013-01-03 07:13:00,18.4,7.1,30.01,NNW,332,1.9,2.9,61,0.00, +FZSN FG BLRA SQ BLRA,OVC100 VV000 5SM,0.00,WUHU216HW,2013-01-03 14:13:00,
2013-01-03 07:18:00,18.4,7.1,30.01,North,0,3.4,4.0,61,0.00, +FZSN FG BLRA SQ BLRA,OVC100 VV000 5SM,0.00,WUHU216HW,2013-01-03 14:18:00,
2013-01-03 07:23:00,18.7,7.5,30.01,NNW,342,2.7,5.1,61,0.00, +FZSN FG BLRA SQ BLRA,OVC100 VV000 5SM,0.00,WUHU216HW,2013-01-03 14:23:00,
2013-01-03 07:28:00,18.9,7.9,30.01,NNW,338,2.7,5.1,62,0.00, +FZSN FG BLRA SQ BLRA,OVC100 VV000 5SM,0.00,WUHU216HW,2013-01-03 14:28:00,
2013-01-03 07:33:00,19.1,7.7,30.02,NNE,23,2.0,3.4,61,0.00, +FZSN FG BLRA SQ BLRA,OVC100 VV000 5SM,0.00,WUHU216HW,2013-01-03 14:33:00,
2013-01-03 07:38:00,19.4,8.1,30.02,NNW,348,1.4,3.4,61,0.00, +FZSN FG BLRA SQ BLRA,OVC100 VV000 5SM,0.00,WUHU216HW,2013-01-03 14:38:00,
2013-01-03 07:43:00,19.6,7.9,30.02,NNW,328,1.4,2.5,60,0.00, +FZSN FG BLRA SQ BLRA,OVC100 VV000 5SM,0.00,WUHU216HW,2013-01-03 14:43:00,
2013-01-03 07:48:00,19.8,8.1,30.02,NNW,342,0.7,2.5,60,0.00, +FZSN FG BLRA SQ BLRA,OVC100 VV000 5SM,0.00,WUHU216HW,2013-01-03 14:48:00,
2013-01-03 07:53:00,20.5,8.4,30.02,NW,315,0.4,2.5,59,0.00, +FZSN FG BLRA SQ BLRA,OVC100 VV000 5SM,0.00,WUHU216HW,2013-01-03 14:53:00,
2013-01-03 07:58:00,21.8,9.6,30.02,NNW,338,0.4,1.1,59,0.00, +FZSN FG BLRA SQ BLRA,OVC100 VV000 5SM,0.00,WUHU216HW,2013-01-03 14:58:00,
2013-01-03 08:03:00,23.0,10.8,30.02,West,278,0.7,1.1,59,0.00, +FZSN FG BLRA SQ BLRA,OVC100 VV000 5SM,0.00,WUHU216HW,2013-01-03 15:03:00,
2013-01-03 08:08:00,24.5,11.8,30.02,West,270,2.7,2.7,58,0.00, +FZSN FG BLRA SQ BLRA,OVC100 VV000 5SM,0.00,WUHU216HW,2013-01-03 15:08:00,
2013-01-03 08:13:00,26.1,12.4,30.02,WNW,287,3.6,4.3,56,0.00, +FZSN FG BLRA SQ BLRA,OVC100 VV000 5SM,0.00,WUHU216HW,2013-01-03 15:13:00,
2013-01-03 08:18:00,27.7,14.1,30.02,West,270,2.5,4.3,56,0.00, +FZSN FG BLRA SQ BLRA,OVC100 VV000 5SM,0.00,WUHU216HW,2013-01-03 15:18:00,
2013-01-03 08:23:00,28.8,14.2,30.02,WNW,295,1.7,2.7,54,0.00, +FZSN FG BLRA SQ BLRA,OVC100 VV000 5SM,0.00,WUHU216HW,2013-01-03 15:23:00,
2013-01-03 08:28:00,29.5,14.0,30.02,West,270,1.8,3.4,52,0.00, +FZSN FG BLRA SQ BLRA,OVC100 VV000 5SM,0.00,WUHU216HW,2013-01-03 15:28:00,
2013-01-03 08:33:00,30.2,14.3,30.03,West,280,1.5,3.4,51,0.00, +FZSN FG BLRA SQ BLRA,OVC100 VV000 5SM,0.00,WUHU216HW,2013-01-03 15:33:00,
2013-01-03 08:38:00,30.8,14.8,30.03,WNW,295,1.0,3.1,51,0.00, +FZSN FG BLRA SQ BLRA,OVC100 VV000 5SM,0.00,WUHU216HW,2013-01-03 15:38:00,
2013-01-03 08:43:00,31.0,12.5,30.03,NNW,338,1.8,3.1,46,0.00, +FZSN FG BLRA SQ BLRA,OVC100 VV000 5SM,0.00,WUHU216HW,2013-01-03 15:43:00,
2013-01-03 08:48:00,31.0,12.5,30.03,NW,318,2.7,4.0,46,0.00, +FZSN FG BLRA SQ BLRA,OVC100 VV000 5SM,0.00,WUHU216HW,2013-01-03 15:48:00,
2013-01-03 08:53:00,31.3,13.3,30.03,NNW,332,2.0,5.6,47,0.00, +FZSN FG BLRA SQ BLRA,OVC100 VV000 5SM,0.00,WUHU216HW,2013-01-03 15:53:00,
2013-01-03 08:58:00,32.2,13.6,30.03,NNW,328,4.2,5.6,46,0.00, +FZSN FG BLRA SQ BLRA,OVC100 VV000 5SM,0.00,WUHU216HW,2013-01-03 15:58:00,
2013-01-03 09:03:00,33.1,13.4,30.04,NW,315,5.1,6.5,44,0.00, +FZSN FG BLRA SQ BLRA,OVC100 VV000 5SM,0.00,WUHU216HW,2013-01-03 16:03:00,
2013-01-03 09:08:00,33.7,14.0,30.04,NNW,338,4.5,8.1,44,0.00, +FZSN FG BLRA SQ BLRA,OVC100 VV000 5SM,0.00,WUHU216HW,2013-01-03 16:08:00,
2013-01-03 09:13:00,34.6,13.8,30.04,NNW,338,3.8,8.1,42,0.00, +FZSN FG BLRA SQ BLRA,OVC100 VV000 5SM,0.00,WUHU216HW,2013-01-03 16:13:00,
2013-01-03 09:18:00,35.5,14.1,30.04,North,0,5.4,7.2,41,0.00, +FZSN FG BLRA SQ BLRA,OVC100 VV000 5SM,0.00,WUHU216HW,2013-01-03 16:18:00,
2013-01-03 09:23:00,36.2,14.1,30.04,NNW,333,4.8,7.2,40,0.00, +FZSN FG BLRA SQ BLRA,OVC100 VV000 5SM,0.00,WUHU216HW,2013-01-03 16:23:00,
2013-01-03 09:28:00,36.7,14.7,30.04,NNW,339,4.8,6.5,40,0.00, +FZSN FG BLRA SQ BLRA,OVC100 VV000 5SM,0.00,WUHU216HW,2013-01-03 16:28:00,
2013-01-03 09:33:00,37.3,13.9,30.05,NNW,341,4.5,6.9,38,0.00, +FZSN FG BLRA SQ BLRA,OVC100 VV000 5SM,0.00,WUHU216HW,2013-01-03 16:33:00,
2013-01-03 09:38:00,37.8,14.3,30.05,North,355,4.2,7.4,38,0.00, +FZSN FG BLRA SQ BLRA,OVC100 VV000 5SM,0.00,WUHU216HW,2013-01-03 16:38:00,
2013-01-03 09:43:00,38.5,14.9,30.05,NNW,338,6.0,7.4,38,0.00, +FZSN FG BLRA SQ BLRA,OVC100 VV000 5SM,0.00,WUHU216HW,2013-01-03 16:43:00,
2013-01-03 09:48:00,39.2,14.9,30.05,North,0,5.4,6.0,37,0.00, +FZSN FG BLRA SQ BLRA,OVC100 VV000 5SM,0.00,WUHU216HW,2013-01-03 16:48:00,
2013-01-03 09:53:00,40.1,14.5,30.05,NNE,23,4.7,6.0,35,0.00, +FZSN FG BLRA SQ BLRA,OVC100 VV000 5SM,0.00,WUHU216HW,2013-01-03 16:53:00,
2013-01-03 09:58:00,40.7,15.7,30.05,NNW,338,4.0,5.4,36,0.00, +FZSN FG BLRA SQ BLRA,OVC100 VV000 5SM,0.00,WUHU216HW,2013-01-03 16:58:00,
2013-01-03 10:03:00,41.4,15.6,30.05,NNW,343,4.4,5.4,35,0.00, +FZSN FG BLRA SQ BLRA,OVC100 VV000 5SM,0.00,WUHU216HW,2013-01-03 17:03:00,
2013-01-03 10:08:00,41.8,14.6,30.05,NNW,338,4.5,6.3,33,0.00, +FZSN FG BLRA SQ BLRA,OVC100 VV000 5SM,0.00,WUHU216HW,2013-01-03 17:08:00,
2013-01-03 10:13:00,42.5,15.8,30.06,North,355,4.0,6.3,34,0.00, +FZSN FG BLRA SQ BLRA,OVC100 VV000 5SM,0.00,WUHU216HW,2013-01-03 17:13:00,
2013-01-03 10:18:00,43.6,16.1,30.06,North,355,2.3,8.7,33,0.00, +FZSN FG BLRA SQ BLRA,OVC100 VV000 5SM,0.00,WUHU216HW,2013-01-03 17:18:00,
2013-01-03 10:23:00,43.6,13.2,30.06,North,0,0.4,8.7,29,0.00, +FZSN FG BLRA SQ BLRA,OVC100 VV000 5SM,0.00,WUHU216HW,2013-01-03 17:23:00,
2013-01-03 10:28:00,43.6,15.5,30.06,North,0,0.0,2.0,32,0.00, +FZSN FG BLRA SQ BLRA,OVC100 VV000 5SM,0.00,WUHU216HW,2013-01-03 17:28:00,
2013-01-03 10:33:00,43.9,14.5,30.06,NNW,338,4.9,4.9,30,0.00, +FZSN FG BLRA SQ BLRA,OVC100 VV000 5SM,0.00,WUHU216HW,2013-01-03 17:33:00,
2013-01-03 10:38:00,44.6,15.1,30.06,North,0,6.9,6.9,30,0.00, +FZSN FG BLRA SQ BLRA,OVC100 VV000 5SM,0.00,WUHU216HW,2013-01-03 17:38:00,
2013-01-03 10:43:00,45.5,15.9,30.06,North,0,5.2,6.9,30,0.00, +FZSN FG BLRA SQ BLRA,OVC100 VV000 5SM,0.00,WUHU216HW,2013-01-03 17:43:00,
2013-01-03 10:48:00,46.1,15.5,30.06,NNW,338,10.1,10.1,29,0.00, +FZSN FG BLRA SQ BLRA,OVC100 VV000 5SM,0.00,WUHU216HW,2013-01-03 17:48:00,
2013-01-03 10:53:00,46.6,15.0,30.06,NNW,338,7.6,10.1,28,0.00, +FZSN FG BLRA SQ BLRA,OVC100 VV000 5SM,0.00,WUHU216HW,2013-01-03 17:53:00,
2013-01-03 10:58:00,47.2,14.6,30.06,NW,315,5.1,10.1,27,0.00, +FZSN FG BLRA SQ BLRA,OVC100 VV000 5SM,0.00,WUHU216HW,2013-01-03 17:58:00,
2013-01-03 11:03:00,47.5,15.0,30.06,NW,315,2.4,7.6,27,0.00, +FZSN FG BLRA SQ BLRA,OVC100 VV000 5SM,0.00,WUHU216HW,2013-01-03 18:03:00,
2013-01-03 11:08:00,48.2,16.5,30.06,North,0,0.0,5.1,28,0.00, +FZSN FG BLRA SQ BLRA,OVC100 VV000 5SM,0.00,WUHU216HW,2013-01-03 18:08:00,
2013-01-03 11:13:00,48.1,10.7,30.05,North,0,0.0,0.0,22,0.00, +FZSN FG BLRA SQ BLRA,OVC100 VV000 5SM,0.00,WUHU216HW,2013-01-03 18:13:00,
2013-01-03 11:18:00,47.9,10.6,30.05,North,0,0.0,0.0,22,0.00, +FZSN FG BLRA SQ BLRA,OVC100 VV000 5SM,0.00,WUHU216HW,2013-01-03 18:18:00,
2013-01-03 11:23:00,47.3,9.2,30.05,North,0,0.0,0.0,21,0.00, +FZSN FG BLRA SQ BLRA,OVC100 VV000 5SM,0.00,WUHU216HW,2013-01-03 18:23:00,
2013-01-03 11:28:00,47.2,9.1,30.05,North,0,0.0,0.0,21,0.00, +FZSN FG BLRA SQ BLRA,OVC100 VV000 5SM,0.00,WUHU216HW,2013-01-03 18:28:00,
2013-01-03 11:33:00,47.2,9.1,30.05,North,0,0.0,0.0,21,0.00, +FZSN FG BLRA SQ BLRA,OVC100 VV000 5SM,0.00,WUHU216HW,2013-01-03 18:33:00,
2013-01-03 11:38:00,47.2,9.1,30.05,North,0,0.0,0.0,21,0.00, +FZSN FG BLRA SQ BLRA,OVC100 VV000 5SM,0.00,WUHU216HW,2013-01-03 18:38:00,
2013-01-03 11:43:00,46.8,7.8,30.05,North,0,0.0,0.0,20,0.00, +FZSN FG BLRA SQ BLRA,OVC100 VV000 5SM,0.00,WUHU216HW,2013-01-03 18:43:00,
2013-01-03 11:48:00,46.6,7.8,30.05,North,0,0.0,0.0,20,0.00, +FZSN FG BLRA SQ BLRA,OVC100 VV000 5SM,0.00,WUHU216HW,2013-01-03 18:48:00,
2013-01-03 11:53:00,47.2,9.1,30.04,North,0,0.0,0.0,21,0.00, +FZSN FG BLRA SQ BLRA,OVC100 VV000 5SM,0.00,WUHU216HW,2013-01-03 18:53:00,
2013-01-03 11:58:00,47.2,8.1,30.04,North,0,0.0,0.0,20,0.00, +FZSN FG BLRA SQ BLRA,OVC100 VV000 5SM,0.00,WUHU216HW,2013-01-03 18:58:00,
2013-01-03 12:03:00,47.2,8.1,30.04,North,0,0.0,0.0,20,0.00, +FZSN FG BLRA SQ BLRA,OVC100 VV000 5SM,0.00,WUHU216HW,2013-01-03 19:03:00,
2013-01-03 12:08:00,47.9,9.6,30.03,North,0,0.0,0.0,21,0.00, +FZSN FG BLRA SQ BLRA,OVC100 VV000 5SM,0.00,WUHU216HW,2013-01-03 19:08:00,
2013-01-03 12:13:00,48.2,9.0,30.03,North,0,0.0,0.0,20,0.00, +FZSN FG BLRA SQ BLRA,OVC100 VV000 5SM,0.00,WUHU216HW,2013-01-03 19:13:00,
2013-01-03 12:18:00,48.4,9.2,30.03,North,0,0.0,0.0,20,0.00, +FZSN FG BLRA SQ BLRA,OVC100 VV000 5SM,0.00,WUHU216HW,2013-01-03 19:18:00,
2013-01-03 12:51:00,48.2,9.0,30.01,NE,41,13.0,19.5,20,0.00, +FZSN FG BLRA SQ BLRA,OVC100 VV000 5SM,0.00,WUHU216HW,2013-01-03 19:51:00,
2013-01-03 12:56:00,48.6,6.4,30.01,NE,47,12.9,18.6,18,0.00, +FZSN FG BLRA SQ BLRA,OVC100 VV000 5SM,0.00,WUHU216HW,2013-01-03 19:56:00,
2013-01-03 13:01:00,48.4,9.2,30.01,NE,41,11.5,18.6,20,0.00, +FZSN FG BLRA SQ BLRA,OVC100 VV000 5SM,0.00,WUHU216HW,2013-01-03 20:01:00,
2013-01-03 13:06:00,48.4,7.7,30.01,NE,55,10.8,15.7,19,0.00, +FZSN FG BLRA SQ BLRA,OVC100 VV000 5SM,0.00,WUHU216HW,2013-01-03 20:06:00,
2013-01-03 13:11:00,48.6,9.4,30.01,NE,45,13.9,14.8,20,0.00, +FZSN FG BLRA SQ BLRA,OVC100 VV000 5SM,0.00,WUHU216HW,2013-01-03 20:11:00,
2013-01-03 13:16:00,49.0,6.7,30.00,NNE,25,10.0,18.3,18,0.00, +FZSN FG BLRA SQ BLRA,OVC100 VV000 5SM,0.00,WUHU216HW,2013-01-03 20:16:00,
2013-01-03 13:21:00,49.3,7.0,30.00,ENE,68,15.7,18.3,18,0.00, +FZSN FG BLRA SQ BLRA,OVC100 VV000 5SM,0.00,WUHU216HW,2013-01-03 20:21:00,
2013-01-03 13:26:00,49.3,7.0,30.00,NE,45,13.4,16.8,18,0.00, +FZSN FG BLRA SQ BLRA,OVC100 VV000 5SM,0.00,WUHU216HW,2013-01-03 20:26:00,
2013-01-03 13:31:00,49.9,7.5,30.00,NE,42,12.3,16.8,18,0.00, +FZSN FG BLRA SQ BLRA,OVC100 VV000 5SM,0.00,WUHU216HW,2013-01-03 20:31:00,
2013-01-03 13:36:00,49.7,7.3,29.99,ENE,61,9.1,15.0,18,0.00, +FZSN FG BLRA SQ BLRA,OVC100 VV000 5SM,0.00,WUHU216HW,2013-01-03 20:36:00,
2013-01-03 13:41:00,50.0,7.6,29.99,NE,45,12.1,15.4,18,0.00, +FZSN FG BLRA SQ BLRA,OVC100 VV000 5SM,0.00,WUHU216HW,2013-01-03 20:41:00,
2013-01-03 13:46:00,50.4,7.9,29.99,ENE,64,8.7,15.4,18,0.00, +FZSN FG BLRA SQ BLRA,OVC100 VV000 5SM,0.00,WUHU216HW,2013-01-03 20:46:00,
2013-01-03 13:51:00,50.8,6.7,29.99,NE,45,9.8,12.8,17,0.00, +FZSN FG BLRA SQ BLRA,OVC100 VV000 5SM,0.00,WUHU216HW,2013-01-03 20:51:00,
2013-01-03 13:56:00,50.8,6.7,29.99,ENE,68,12.3,14.1,17,0.00, +FZSN FG BLRA SQ BLRA,OVC100 VV000 5SM,0.00,WUHU216HW,2013-01-03 20:56:00,
2013-01-03 14:01:00,51.3,7.1,30.00,NNW,338,9.4,14.1,17,0.00, +FZSN FG BLRA SQ BLRA,OVC100 VV000 5SM,0.00,WUHU216HW,2013-01-03 21:01:00,
2013-01-03 14:06:00,51.5,5.8,30.00,ENE,62,12.3,13.6,16,0.00, +FZSN FG BLRA SQ BLRA,OVC100 VV000 5SM,0.00,WUHU216HW,2013-01-03 21:06:00,
2013-01-03 14:11:00,51.1,6.9,30.01,NNE,23,11.4,13.6,17,0.00, +FZSN FG BLRA SQ BLRA,OVC100 VV000 5SM,0.00,WUHU216HW,2013-01-03 21:11:00,
2013-01-03 14:16:00,50.6,6.5,30.01,ESE,113,13.9,15.0,17,0.00, +FZSN FG BLRA SQ BLRA,OVC100 VV000 5SM,0.00,WUHU216HW,2013-01-03 21:16:00,
2013-01-03 14:21:00,50.2,6.2,30.02,ENE,68,12.8,15.0,17,0.00, +FZSN FG BLRA SQ BLRA,OVC100 VV000 5SM,0.00,WUHU216HW,2013-01-03 21:21:00,
2013-01-03 14:26:00,50.2,6.2,30.02,NE,45,16.6,17.9,17,0.00, +FZSN FG BLRA SQ BLRA,OVC100 VV000 5SM,0.00,WUHU216HW,2013-01-03 21:26:00,
2013-01-03 14:31:00,50.2,6.2,30.01,NE,45,14.5,17.9,17,0.00, +FZSN FG BLRA SQ BLRA,OVC100 VV000 5SM,0.00,WUHU216HW,2013-01-03 21:31:00,
2013-01-03 14:36:00,50.2,6.2,30.01,NNE,16,13.5,16.6,17,0.00, +FZSN FG BLRA SQ BLRA,OVC100 VV000 5SM,0.00,WUHU216HW,2013-01-03 21:36:00,
2013-01-03 14:41:00,50.6,8.0,30.00,ENE,68,13.2,15.2,18,0.00, +FZSN FG BLRA SQ BLRA,OVC100 VV000 5SM,0.00,WUHU216HW,2013-01-03 21:41:00,
2013-01-03 14:46:00,50.6,6.5,30.01,ENE,68,11.6,15.2,17,0.00, +FZSN FG BLRA SQ BLRA,OVC100 VV000 5SM,0.00,WUHU216HW,2013-01-03 21:46:00,
2013-01-03 14:51:00,50.6,6.5,30.01,NE,45,11.4,17.9,17,0.00, +FZSN FG BLRA SQ BLRA,OVC100 VV000 5SM,0.00,WUHU216HW,2013-01-03 21:51:00,
2013-01-03 14:56:00,50.4,6.4,30.00,ENE,68,15.7,17.9,17,0.00, +FZSN FG BLRA SQ BLRA,OVC100 VV000 5SM,0.00,WUHU216HW,2013-01-03 21:56:00,
2013-01-03 15:01:00,50.4,6.4,30.01,ENE,68,8.3,18.1,17,0.00, +FZSN FG BLRA SQ BLRA,OVC100 VV000 5SM,0.00,WUHU216HW,2013-01-03 22:01:00,
2013-01-03 15:06:00,50.6,5.1,30.01,ENE,64,14.2,18.1,16,0.00, +FZSN FG BLRA SQ BLRA,OVC100 VV000 5SM,0.00,WUHU216HW,2013-01-03 22:06:00,
2013-01-03 15:11:00,50.8,6.7,30.01,NE,47,14.5,17.2,17,0.00, +FZSN FG BLRA SQ BLRA,OVC100 VV000 5SM,0.00,WUHU216HW,2013-01-03 22:11:00,
2013-01-03 15:16:00,50.8,5.1,30.01,NNE,23,13.6,18.6,16,0.00, +FZSN FG BLRA SQ BLRA,OVC100 VV000 5SM,0.00,WUHU216HW,2013-01-03 22:16:00,
2013-01-03 15:21:00,50.4,4.9,30.02,ENE,68,15.7,18.6,16,0.00, +FZSN FG BLRA SQ BLRA,OVC100 VV000 5SM,0.00,WUHU216HW,2013-01-03 22:21:00,
2013-01-03 15:26:00,50.0,4.6,30.01,NE,49,12.0,17.2,16,0.00, +FZSN FG BLRA SQ BLRA,OVC100 VV000 5SM,0.00,WUHU216HW,2013-01-03 22:26:00,
2013-01-03 15:31:00,49.9,6.0,30.02,NE,45,19.5,19.5,17,0.00, +FZSN FG BLRA SQ BLRA,OVC100 VV000 5SM,0.00,WUHU216HW,2013-01-03 22:31:00,
2013-01-03 15:36:00,49.5,4.2,30.02,NE,45,14.8,19.5,16,0.00, +FZSN FG BLRA SQ BLRA,OVC100 VV000 5SM,0.00,WUHU216HW,2013-01-03 22:36:00,
2013-01-03 15:41:00,49.5,5.7,30.02,NE,47,14.5,19.5,17,0.00, +FZSN FG BLRA SQ BLRA,OVC100 VV000 5SM,0.00,WUHU216HW,2013-01-03 22:41:00,
2013-01-03 15:46:00,50.0,6.1,30.02,NE,51,11.9,16.3,17,0.00, +FZSN FG BLRA SQ BLRA,OVC100 VV000 5SM,0.00,WUHU216HW,2013-01-03 22:46:00,
2013-01-03 15:51:00,50.0,6.1,30.03,ENE,59,16.1,19.2,17,0.00, +FZSN FG BLRA SQ BLRA,OVC100 VV000 5SM,0.00,WUHU216HW,2013-01-03 22:51:00,
2013-01-03 15:56:00,49.7,4.3,30.02,NE,52,16.6,19.2,16,0.00, +FZSN FG BLRA SQ BLRA,OVC100 VV000 5SM,0.00,WUHU216HW,2013-01-03 22:56:00,
2013-01-03 16:01:00,49.5,5.7,30.02,NE,45,12.8,18.6,17,0.00, +FZSN FG BLRA SQ BLRA,OVC100 VV000 5SM,0.00,WUHU216HW,2013-01-03 23:01:00,
2013-01-03 16:06:00,49.7,5.8,30.02,ENE,68,12.5,16.8,17,0.00, +FZSN FG BLRA SQ BLRA,OVC100 VV000 5SM,0.00,WUHU216HW,2013-01-03 23:06:00,
2013-01-03 16:11:00,50.0,6.1,30.02,NNE,23,13.2,15.0,17,0.00, +FZSN FG BLRA SQ BLRA,OVC100 VV000 5SM,0.00,WUHU216HW,2013-01-03 23:11:00,
2013-01-03 16:16:00,50.2,6.2,30.01,NE,45,14.5,14.5,17,0.00, +FZSN FG BLRA SQ BLRA,OVC100 VV000 5SM,0.00,WUHU216HW,2013-01-03 23:16:00,
2013-01-03 16:21:00,50.4,6.4,30.01,NE,43,8.4,14.5,17,0.00, +FZSN FG BLRA SQ BLRA,OVC100 VV000 5SM,0.00,WUHU216HW,2013-01-03 23:21:00,
2013-01-03 16:26:00,50.4,6.4,30.01,ENE,68,9.4,14.5,17,0.00, +FZSN FG BLRA SQ BLRA,OVC100 VV000 5SM,0.00,WUHU216HW,2013-01-03 23:26:00,
2013-01-03 16:31:00,49.3,5.5,30.00,NE,50,12.9,14.3,17,0.00, +FZSN FG BLRA SQ BLRA,OVC100 VV000 5SM,0.00,WUHU216HW,2013-01-03 23:31:00,
2013-01-03 16:36:00,47.7,5.6,30.00,ENE,61,12.5,15.2,18,0.00, +FZSN FG BLRA SQ BLRA,OVC100 VV000 5SM,0.00,WUHU216HW,2013-01-03 23:36:00,
2013-01-03 16:41:00,46.4,4.6,30.00,ENE,65,12.3,16.3,18,0.00, +FZSN FG BLRA SQ BLRA,OVC100 VV000 5SM,0.00,WUHU216HW,2013-01-03 23:41:00,
2013-01-03 16:46:00,45.2,6.6,30.01,ENE,68,11.9,16.3,20,0.00, +FZSN FG BLRA SQ BLRA,OVC100 VV000 5SM,0.00,WUHU216HW,2013-01-03 23:46:00,
2013-01-03 16:51:00,44.3,6.7,30.01,ENE,68,13.4,13.6,21,0.00, +FZSN FG BLRA SQ BLRA,OVC100 VV000 5SM,0.00,WUHU216HW,2013-01-03 23:51:00,
2013-01-03 16:56:00,43.2,6.7,30.01,NE,48,7.0,13.6,22,0.00, +FZSN FG BLRA SQ BLRA,OVC100 VV000 5SM,0.00,WUHU216HW,2013-01-03 23:56:00,
2013-01-03 17:01:00,42.3,5.9,30.02,NE,54,4.8,13.4,22,0.00, +FZSN FG BLRA SQ BLRA,OVC100 VV000 5SM,0.00,WUHU216HW,2013-01-04 00:01:00,
2013-01-03 17:06:00,41.8,5.4,30.02,ENE,68,10.7,10.7,22,0.00, +FZSN FG BLRA SQ BLRA,OVC100 VV000 5SM,0.00,WUHU216HW,2013-01-04 00:06:00,
2013-01-03 17:11:00,41.0,4.9,30.03,NE,54,9.4,10.7,22,0.00, +FZSN FG BLRA SQ BLRA,OVC100 VV000 5SM,0.00,WUHU216HW,2013-01-04 00:11:00,
2013-01-03 17:16:00,40.5,5.3,30.03,NE,45,11.6,11.6,23,0.00, +FZSN FG BLRA SQ BLRA,OVC100 VV000 5SM,0.00,WUHU216HW,2013-01-04 00:16:00,
2013-01-03 17:21:00,39.8,4.6,30.03,NE,36,8.8,11.6,23,0.00, +FZSN FG BLRA SQ BLRA,OVC100 VV000 5SM,0.00,WUHU216HW,2013-01-04 00:21:00,
2013-01-03 17:26:00,39.2,5.0,30.03,NE,52,9.7,13.2,24,0.00, +FZSN FG BLRA SQ BLRA,OVC100 VV000 5SM,0.00,WUHU216HW,2013-01-04 00:26:00,
2013-01-03 17:31:00,38.5,4.4,30.03,NNE,12,7.4,13.2,24,0.00, +FZSN FG BLRA SQ BLRA,OVC100 VV000 5SM,0.00,WUHU216HW,2013-01-04 00:31:00,
2013-01-03 17:37:00,38.2,4.2,30.02,NNE,15,8.2,11.4,24,0.00, +FZSN FG BLRA SQ BLRA,OVC100 VV000 5SM,0.00,WUHU216HW,2013-01-04 00:37:00,
2013-01-03 17:41:00,37.4,5.3,30.02,NE,38,7.8,11.4,26,0.00, +FZSN FG BLRA SQ BLRA,OVC100 VV000 5SM,0.00,WUHU216HW,2013-01-04 00:41:00,
2013-01-03 17:46:00,37.1,5.0,30.02,NNE,25,8.2,8.7,26,0.00, +FZSN FG BLRA SQ BLRA,OVC100 VV000 5SM,0.00,WUHU216HW,2013-01-04 00:46:00,
2013-01-03 17:51:00,36.7,6.4,30.02,SSE,147,1.2,8.7,28,0.00, +FZSN FG BLRA SQ BLRA,OVC100 VV000 5SM,0.00,WUHU216HW,2013-01-04 00:51:00,
2013-01-03 17:56:00,38.3,9.6,30.02,East,90,4.0,4.3,30,0.00, +FZSN FG BLRA SQ BLRA,OVC100 VV000 5SM,0.00,WUHU216HW,2013-01-04 00:56:00,
2013-01-03 18:01:00,38.3,7.8,30.02,ENE,68,4.9,5.1,28,0.00, +FZSN FG BLRA SQ BLRA,OVC100 VV000 5SM,0.00,WUHU216HW,2013-01-04 01:01:00,
2013-01-03 18:06:00,37.1,6.8,30.02,NE,45,8.3,9.6,28,0.00, +FZSN FG BLRA SQ BLRA,OVC100 VV000 5SM,0.00,WUHU216HW,2013-01-04 01:06:00,
2013-01-03 18:11:00,36.2,6.9,30.03,NE,45,5.4,9.6,29,0.00, +FZSN FG BLRA SQ BLRA,OVC100 VV000 5SM,0.00,WUHU216HW,2013-01-04 01:11:00,
2013-01-03 18:16:00,35.3,6.9,30.03,NNE,23,4.8,8.3,30,0.00, +FZSN FG BLRA SQ BLRA,OVC100 VV000 5SM,0.00,WUHU216HW,2013-01-04 01:16:00,
2013-01-03 18:21:00,34.7,6.5,30.04,ENE,68,3.8,5.8,30,0.00, +FZSN FG BLRA SQ BLRA,OVC100 VV000 5SM,0.00,WUHU216HW,2013-01-04 01:21:00,
2013-01-03 18:26:00,34.0,6.0,30.04,South,180,2.5,5.6,30,0.00, +FZSN FG BLRA SQ BLRA,OVC100 VV000 5SM,0.00,WUHU216HW,2013-01-04 01:26:00,
2013-01-03 18:31:00,32.9,5.6,30.04,SE,135,1.1,4.0,31,0.00, +FZSN FG BLRA SQ BLRA,OVC100 VV000 5SM,0.00,WUHU216HW,2013-01-04 01:31:00,
2013-01-03 18:36:00,32.4,6.4,30.04,ESE,113,3.4,3.4,33,0.00, +FZSN FG BLRA SQ BLRA,OVC100 VV000 5SM,0.00,WUHU216HW,2013-01-04 01:36:00,
2013-01-03 18:41:00,32.0,5.4,30.05,NE,45,4.5,6.7,32,0.00, +FZSN FG BLRA SQ BLRA,OVC100 VV000 5SM,0.00,WUHU216HW,2013-01-04 01:41:00,
2013-01-03 18:46:00,32.2,6.2,30.04,NE,45,6.9,8.7,33,0.00, +FZSN FG BLRA SQ BLRA,OVC100 VV000 5SM,0.00,WUHU216HW,2013-01-04 01:46:00,
2013-01-03 18:52:00,32.2,6.9,30.04,NE,51,6.5,10.3,34,0.00, +FZSN FG BLRA SQ BLRA,OVC100 VV000 5SM,0.00,WUHU216HW,2013-01-04 01:52:00,
2013-01-03 18:56:00,32.4,7.7,30.04,NE,36,7.2,10.5,35,0.00, +FZSN FG BLRA SQ BLRA,OVC100 VV000 5SM,0.00,WUHU216HW,2013-01-04 01:56:00,
2013-01-03 19:01:00,32.4,7.7,30.04,NE,45,10.3,10.5,35,0.00, +FZSN FG BLRA SQ BLRA,OVC100 VV000 5SM,0.00,WUHU216HW,2013-01-04 02:01:00,
2013-01-03 19:06:00,32.4,7.7,30.04,NNE,26,7.0,11.4,35,0.00, +FZSN FG BLRA SQ BLRA,OVC100 VV000 5SM,0.00,WUHU216HW,2013-01-04 02:06:00,
2013-01-03 19:11:00,32.2,7.5,30.04,NNE,23,9.2,11.4,35,0.00, +FZSN FG BLRA SQ BLRA,OVC100 VV000 5SM,0.00,WUHU216HW,2013-01-04 02:11:00,
2013-01-03 19:16:00,32.0,7.3,30.04,NE,45,12.1,13.4,35,0.00, +FZSN FG BLRA SQ BLRA,OVC100 VV000 5SM,0.00,WUHU216HW,2013-01-04 02:16:00,
2013-01-03 19:21:00,31.9,7.7,30.04,NE,45,7.8,13.4,36,0.00, +FZSN FG BLRA SQ BLRA,OVC100 VV000 5SM,0.00,WUHU216HW,2013-01-04 02:21:00,
2013-01-03 19:26:00,31.7,7.6,30.04,NE,45,7.2,12.1,36,0.00, +FZSN FG BLRA SQ BLRA,OVC100 VV000 5SM,0.00,WUHU216HW,2013-01-04 02:26:00,
2013-01-03 19:31:00,31.7,7.6,30.04,NE,41,6.8,12.1,36,0.00, +FZSN FG BLRA SQ BLRA,OVC100 VV000 5SM,0.00,WUHU216HW,2013-01-04 02:31:00,
2013-01-03 19:36:00,31.5,7.5,30.04,North,0,6.3,12.1,36,0.00, +FZSN FG BLRA SQ BLRA,OVC100 VV000 5SM,0.00,WUHU216HW,2013-01-04 02:36:00,
2013-01-03 19:41:00,31.7,7.6,30.04,NE,45,7.4,10.3,36,0.00, +FZSN FG BLRA SQ BLRA,OVC100 VV000 5SM,0.00,WUHU216HW,2013-01-04 02:41:00,
2013-01-03 19:46:00,31.5,7.5,30.04,NE,45,7.4,10.3,36,0.00, +FZSN FG BLRA SQ BLRA,OVC100 VV000 5SM,0.00,WUHU216HW,2013-01-04 02:46:00,
2013-01-03 19:51:00,31.3,7.9,30.04,North,0,5.8,8.5,37,0.00, +FZSN FG BLRA SQ BLRA,OVC100 VV000 5SM,0.00,WUHU216HW,2013-01-04 02:51:00,
2013-01-03 19:56:00,31.0,7.6,30.05,NNE,23,6.9,8.1,37,0.00, +FZSN FG BLRA SQ BLRA,OVC100 VV000 5SM,0.00,WUHU216HW,2013-01-04 02:56:00,
2013-01-03 20:01:00,30.6,7.3,30.05,NE,45,5.4,8.5,37,0.00, +FZSN FG BLRA SQ BLRA,OVC100 VV000 5SM,0.00,WUHU216HW,2013-01-04 03:01:00,
2013-01-03 20:06:00,30.2,6.9,30.05,NNE,28,7.0,8.5,37,0.00, +FZSN FG BLRA SQ BLRA,OVC100 VV000 5SM,0.00,WUHU216HW,2013-01-04 03:06:00,
2013-01-03 20:11:00,30.1,6.8,30.06,NNE,30,5.5,8.5,37,0.00, +FZSN FG BLRA SQ BLRA,OVC100 VV000 5SM,0.00,WUHU216HW,2013-01-04 03:11:00,
2013-01-03 20:16:00,29.9,7.2,30.06,North,5,9.7,10.1,38,0.00, +FZSN FG BLRA SQ BLRA,OVC100 VV000 5SM,0.00,WUHU216HW,2013-01-04 03:16:00,
2013-01-03 20:21:00,29.7,7.1,30.06,NNE,17,7.7,10.3,38,0.00, +FZSN FG BLRA SQ BLRA,OVC100 VV000 5SM,0.00,WUHU216HW,2013-01-04 03:21:00,
2013-01-03 20:26:00,29.5,7.6,30.06,NNE,20,9.0,11.4,39,0.00, +FZSN FG BLRA SQ BLRA,OVC100 VV000 5SM,0.00,WUHU216HW,2013-01-04 03:26:00,
2013-01-03 20:31:00,29.5,7.6,30.06,NNE,23,8.2,11.4,39,0.00, +FZSN FG BLRA SQ BLRA,OVC100 VV000 5SM,0.00,WUHU216HW,2013-01-04 03:31:00,
2013-01-03 20:36:00,29.5,7.6,30.06,NNE,21,6.6,11.4,39,0.00, +FZSN FG BLRA SQ BLRA,OVC100 VV000 5SM,0.00,WUHU216HW,2013-01-04 03:36:00,
2013-01-03 20:41:00,29.3,6.8,30.07,NNE,13,5.1,8.9,38,0.00, +FZSN FG BLRA SQ BLRA,OVC100 VV000 5SM,0.00,WUHU216HW,2013-01-04 03:41:00,
2013-01-03 20:46:00,29.2,6.6,30.07,NNE,23,3.6,6.9,38,0.00, +FZSN FG BLRA SQ BLRA,OVC100 VV000 5SM,0.00,WUHU216HW,2013-01-04 03:46:00,
2013-01-03 20:51:00,28.8,6.9,30.07,NE,45,3.6,4.5,39,0.00, +FZSN FG BLRA SQ BLRA,OVC100 VV000 5SM,0.00,WUHU216HW,2013-01-04 03:51:00,
2013-01-03 20:56:00,28.6,6.8,30.07,NE,45,7.8,7.8,39,0.00, +FZSN FG BLRA SQ BLRA,OVC100 VV000 5SM,0.00,WUHU216HW,2013-01-04 03:56:00,
2013-01-03 21:01:00,28.8,8.0,30.07,NNE,23,7.4,7.8,41,0.00, +FZSN FG BLRA SQ BLRA,OVC100 VV000 5SM,0.00,WUHU216HW,2013-01-04 04:01:00,
2013-01-03 21:06:00,29.0,7.7,30.07,North,2,5.7,7.6,40,0.00, +FZSN FG BLRA SQ BLRA,OVC100 VV000 5SM,0.00,WUHU216HW,2013-01-04 04:06:00,
2013-01-03 21:11:00,29.2,7.2,30.07,ENE,68,5.8,7.6,39,0.00, +FZSN FG BLRA SQ BLRA,OVC100 VV000 5SM,0.00,WUHU216HW,2013-01-04 04:11:00,
2013-01-03 21:16:00,29.5,7.6,30.08,NE,35,5.9,8.5,39,0.00, +FZSN FG BLRA SQ BLRA,OVC100 VV000 5SM,0.00,WUHU216HW,2013-01-04 04:16:00,
2013-01-03 21:21:00,29.7,7.8,30.08,NNE,31,3.9,8.5,39,0.00, +FZSN FG BLRA SQ BLRA,OVC100 VV000 5SM,0.00,WUHU216HW,2013-01-04 04:21:00,
2013-01-03 21:26:00,29.2,7.2,30.08,West,268,2.0,5.8,39,0.00, +FZSN FG BLRA SQ BLRA,OVC100 VV000 5SM,0.00,WUHU216HW,2013-01-04 04:26:00,
2013-01-03 21:31:00,28.6,6.8,30.08,WNW,290,1.1,5.8,39,0.00, +FZSN FG BLRA SQ BLRA,OVC100 VV000 5SM,0.00,WUHU216HW,2013-01-04 04:31:00,
2013-01-03 21:36:00,28.1,6.2,30.08,NNW,332,0.3,2.5,39,0.00, +FZSN FG BLRA SQ BLRA,OVC100 VV000 5SM,0.00,WUHU216HW,2013-01-04 04:36:00,
2013-01-03 21:41:00,27.5,6.4,30.08,SE,135,0.6,1.3,40,0.00, +FZSN FG BLRA SQ BLRA,OVC100 VV000 5SM,0.00,WUHU216HW,2013-01-04 04:41:00,
2013-01-03 21:46:00,26.6,6.0,30.08,ESE,113,0.0,1.3,41,0.00, +FZSN FG BLRA SQ BLRA,OVC100 VV000 5SM,0.00,WUHU216HW,2013-01-04 04:46:00,
2013-01-03 21:51:00,26.3,5.8,30.09,SSE,158,0.2,0.4,41,0.00, +FZSN FG BLRA SQ BLRA,OVC100 VV000 5SM,0.00,WUHU216HW,2013-01-04 04:51:00,
2013-01-03 21:56:00,25.7,6.8,30.09,SW,217,1.4,2.0,44,0.00, +FZSN FG BLRA SQ BLRA,OVC100 VV000 5SM,0.00,WUHU216HW,2013-01-04 04:56:00,
2013-01-03 22:00:00,25.6,6.6,30.09,SW,225,1.3,2.0,44,0.00, +FZSN FG BLRA SQ BLRA,OVC100 VV000 5SM,0.00,WUHU216HW,2013-01-04 05:00:00,
2013-01-03 22:01:00,25.6,6.6,30.09,SW,225,1.2,2.0,44,0.00, +FZSN FG BLRA SQ BLRA,OVC100 VV000 5SM,0.00,WUHU216HW,2013-01-04 05:01:00,
2013-01-03 22:02:00,25.6,6.0,30.09,SW,225,1.1,2.0,43,0.00, +FZSN FG BLRA SQ BLRA,OVC100 VV000 5SM,0.00,WUHU216HW,2013-01-04 05:02:00,
2013-01-03 22:03:00,25.6,6.0,30.09,SW,225,1.1,2.0,43,0.00, +FZSN FG BLRA SQ BLRA,OVC100 VV000 5SM,0.00,WUHU216HW,2013-01-04 05:03:00,
2013-01-03 22:08:00,24.8,6.0,30.09,SE,142,0.3,1.3,44,0.00, +FZSN FG BLRA SQ BLRA,OVC100 VV000 5SM,0.00,WUHU216HW,2013-01-04 05:08:00,
2013-01-03 22:13:00,24.7,6.2,30.09,East,90,1.1,1.6,45,0.00, +FZSN FG BLRA SQ BLRA,OVC100 VV000 5SM,0.00,WUHU216HW,2013-01-04 05:13:00,
2013-01-03 22:18:00,24.7,7.2,30.09,ENE,68,0.9,2.2,47,0.00, +FZSN FG BLRA SQ BLRA,OVC100 VV000 5SM,0.00,WUHU216HW,2013-01-04 05:18:00,
2013-01-03 22:23:00,24.7,6.2,30.09,East,90,0.0,2.2,45,0.00, +FZSN FG BLRA SQ BLRA,OVC100 VV000 5SM,0.00,WUHU216HW,2013-01-04 05:23:00,
2013-01-03 22:28:00,24.3,7.4,30.09,WSW,248,1.0,2.2,48,0.00, +FZSN FG BLRA SQ BLRA,OVC100 VV000 5SM,0.00,WUHU216HW,2013-01-04 05:28:00,
2013-01-03 22:33:00,24.1,6.8,30.09,SW,225,0.3,2.2,47,0.00, +FZSN FG BLRA SQ BLRA,OVC100 VV000 5SM,0.00,WUHU216HW,2013-01-04 05:33:00,
2013-01-03 22:38:00,23.8,6.0,30.09,SW,225,0.0,0.7,46,0.00, +FZSN FG BLRA SQ BLRA,OVC100 VV000 5SM,0.00,WUHU216HW,2013-01-04 05:38:00,
2013-01-03 22:43:00,23.4,5.6,30.09,SE,135,0.0,0.0,46,0.00, +FZSN FG BLRA SQ BLRA,OVC100 VV000 5SM,0.00,WUHU216HW,2013-01-04 05:43:00,
2013-01-03 22:48:00,23.0,5.8,30.09,SSE,158,0.8,1.1,47,0.00, +FZSN FG BLRA SQ BLRA,OVC100 VV000 5SM,0.00,WUHU216HW,2013-01-04 05:48:00,
2013-01-03 22:53:00,22.9,6.0,30.09,South,180,0.0,1.1,48,0.00, +FZSN FG BLRA SQ BLRA,OVC100 VV000 5SM,0.00,WUHU216HW,2013-01-04 05:53:00,
2013-01-03 22:58:00,22.7,5.9,30.09,SSW,203,0.1,1.8,48,0.00, +FZSN FG BLRA SQ BLRA,OVC100 VV000 5SM,0.00,WUHU216HW,2013-01-04 05:58:00,
2013-01-03 23:03:00,22.3,8.5,30.09,WSW,249,0.5,1.8,55,0.00, +FZSN FG BLRA SQ BLRA,OVC100 VV000 5SM,0.00,WUHU216HW,2013-01-04 06:03:00,
2013-01-03 23:08:00,22.7,8.0,30.10,WSW,248,0.7,1.8,53,0.00, +FZSN FG BLRA SQ BLRA,OVC100 VV000 5SM,0.00,WUHU216HW,2013-01-04 06:08:00,
2013-01-03 23:13:00,22.3,6.5,30.10,SSW,203,2.7,2.9,50,0.00, +FZSN FG BLRA SQ BLRA,OVC100 VV000 5SM,0.00,WUHU216HW,2013-01-04 06:13:00,
2013-01-03 23:18:00,22.0,6.6,30.10,SSW,203,2.5,3.1,51,0.00, +FZSN FG BLRA SQ BLRA,OVC100 VV000 5SM,0.00,WUHU216HW,2013-01-04 06:18:00,
2013-01-03 23:23:00,21.6,7.0,30.10,SW,223,1.2,3.1,53,0.00, +FZSN FG BLRA SQ BLRA,OVC100 VV000 5SM,0.00,WUHU216HW,2013-01-04 06:23:00,
2013-01-03 23:28:00,21.6,6.6,30.10,SW,225,3.1,3.1,52,0.00, +FZSN FG BLRA SQ BLRA,OVC100 VV000 5SM,0.00,WUHU216HW,2013-01-04 06:28:00,
2013-01-03 23:33:00,22.0,7.4,30.10,SSW,203,2.7,3.8,53,0.00, +FZSN FG BLRA SQ BLRA,OVC100 VV000 5SM,0.00,WUHU216HW,2013-01-04 06:33:00,
2013-01-03 23:38:00,22.0,7.7,30.10,SSW,213,3.0,4.5,54,0.00, +FZSN FG BLRA SQ BLRA,OVC100 VV000 5SM,0.00,WUHU216HW,2013-01-04 06:38:00,
2013-01-03 23:43:00,21.8,8.0,30.10,WSW,249,2.1,4.5,55,0.00, +FZSN FG BLRA SQ BLRA,OVC100 VV000 5SM,0.00,WUHU216HW,2013-01-04 06:43:00,
2013-01-03 23:48:00,21.6,9.0,30.10,West,267,1.2,3.4,58,0.00, +FZSN FG BLRA SQ BLRA,OVC100 VV000 5SM,0.00,WUHU216HW,2013-01-04 06:48:00,
2013-01-03 23:53:00,21.4,7.7,30.10,SSW,205,2.9,4.5,55,0.00, +FZSN FG BLRA SQ BLRA,OVC100 VV000 5SM,0.00,WUHU216HW,2013-01-04 06:53:00,
2013-01-03 23:58:00,21.2,7.5,30.10,SSW,203,2.3,4.5,55,0.00, +FZSN FG BLRA SQ BLRA,OVC100 VV000 5SM,0.00,WUHU216HW,2013-01-04 06:58:00,